Flugplatz Baden-Oos

Für EDTB sind keine METAR/TAF Berichte vorhanden.
Es werden die Flugwettermeldungen vom Flugplatz Karlsruhe Baden-Baden in 7 km Entfernung angezeigt.

Bericht für EDSB

vom 01.12. um 08:50 UTC

Wind 22 kt aus 200° in Böen 34 kt

Sichtweite 10 km oder mehr

bedeckt in 3200 ft

Temperatur 8.0°C

Taupunkt 4.0°C

Luftfeuchtigkeit 76%

Luftdruck 1003 hPa

EDSB 010850Z 20022G34KT 9999 OVC032 08/04 Q1003

Prognose für EDSB

vom 01.12. um 05:00 UTC

Zwischen 06:00 UTC und 16:00 UTC

Wind 15 kt aus 200° in Böen 25 kt

Sichtweite 10 km oder mehr

aufgebrochene Bewölkung in 3000 ft


Zwischen 06:00 UTC und 12:00 UTC zeitweise

Wind 20 kt aus 200° in Böen 35 kt


Zwischen 11:00 UTC und 15:00 UTC zeitweise

Regen


Zwischen 16:00 und 19:00 UTC übergehend zu

Wind 12 kt aus 210°

Sichtweite 10 km oder mehr

aufgebrochene Bewölkung in 3000 ft


Zwischen 16:00 UTC und 06:00 UTC zeitweise mit einer Wahrscheinlichkeit von 30%

Regenschauer

aufgebrochene Bewölkung in 2000 ft


Am 02.12. zwischen 03:00 und 06:00 UTC übergehend zu

Wind 7 kt aus 230°

Sichtweite 10 km oder mehr

aufgebrochene Bewölkung in 3000 ft

TAF EDSB 010500Z 0106/0206 20015G25KT 9999 BKN030 TEMPO 0106/0112 20020G35KT TEMPO 0111/0115 RA PROB30 TEMPO 0116/0206 SHRA BKN020TCU BECMG 0116/0119 21012KT BECMG 0203/0206 23007KT
Impressum